Time;durP1;ratioP1;P1;durP2;ratioP2;P2;SDS_P1;SDS_P2;PMS_P1;PMS_P2;Temp;Humidity;BMP_temperature;BMP_pressure;BME280_temperature;BME280_humidity;BME280_pressure;Samples;Min_cycle;Max_cycle;Signal;HPM_P1;HPM_P2
2023/05/29 00:01:18;;;;;;;1.50;1.33;;;23.70;52.20;;;;;;6288417;28;20045;-57
2023/05/29 00:04:21;;;;;;;1.30;1.00;;;23.60;52.20;;;;;;6289987;28;20119;-58
2023/05/29 00:07:24;;;;;;;1.15;0.95;;;23.80;52.30;;;;;;6257216;28;20052;-59
2023/05/29 00:10:25;;;;;;;1.92;1.25;;;23.90;52.50;;;;;;6292320;28;20036;-59
2023/05/29 00:13:27;;;;;;;1.50;1.20;;;23.90;52.50;;;;;;6292479;28;20032;-58
2023/05/29 00:16:29;;;;;;;1.73;1.20;;;23.90;52.50;;;;;;6291917;28;20044;-59
2023/05/29 00:19:31;;;;;;;1.75;1.27;;;23.70;52.50;;;;;;6292424;28;20492;-59
2023/05/29 00:22:33;;;;;;;1.63;1.20;;;23.80;52.60;;;;;;6292679;28;20062;-58
2023/05/29 00:25:34;;;;;;;1.02;0.80;;;23.80;52.50;;;;;;6292343;28;20033;-58
2023/05/29 00:28:36;;;;;;;;;;;23.80;53.10;;;;;;6293090;28;20068;-58
2023/05/29 00:31:37;;;;;;;1.90;1.23;;;23.80;52.60;;;;;;6290713;28;20348;-58
2023/05/29 00:34:40;;;;;;;1.08;0.93;;;23.90;53.20;;;;;;6292255;28;20036;-59
2023/05/29 00:37:42;;;;;;;1.27;1.17;;;23.70;52.50;;;;;;6291581;28;20033;-58
2023/05/29 00:40:44;;;;;;;1.27;1.17;;;23.40;52.30;;;;;;6291261;28;20056;-59
2023/05/29 00:43:46;;;;;;;1.35;1.20;;;23.70;52.50;;;;;;6291000;28;20040;-58
2023/05/29 00:46:52;;;;;;;1.55;1.05;;;23.60;52.50;;;;;;6291648;28;20043;-58
2023/05/29 00:49:55;;;;;;;1.13;0.93;;;23.70;52.40;;;;;;6274073;28;20043;-59
2023/05/29 00:52:58;;;;;;;1.33;1.10;;;23.60;52.40;;;;;;6291781;28;20168;-59
2023/05/29 00:56:00;;;;;;;1.60;1.17;;;23.60;52.40;;;;;;6291158;28;20695;-59
2023/05/29 00:59:03;;;;;;;1.10;1.00;;;23.50;52.40;;;;;;6289936;28;20530;-59
2023/05/29 01:02:05;;;;;;;1.30;1.10;;;23.60;52.40;;;;;;6290315;28;20032;-57
2023/05/29 01:05:09;;;;;;;1.20;1.05;;;23.60;52.50;;;;;;6289623;28;20048;-59
2023/05/29 01:08:12;;;;;;;1.45;1.35;;;23.70;52.50;;;;;;6288916;28;20037;-59
2023/05/29 01:11:22;;;;;;;1.45;1.15;;;23.80;52.50;;;;;;6289816;28;20043;-59
2023/05/29 01:14:29;;;;;;;1.40;1.02;;;23.60;52.40;;;;;;6289223;28;20036;-59
2023/05/29 01:17:43;;;;;;;2.00;0.93;;;23.30;52.20;;;;;;6289719;28;20032;-59
2023/05/29 01:20:50;;;;;;;1.00;0.90;;;23.70;52.40;;;;;;6318315;22;20076;-88
2023/05/29 01:24:09;;;;;;;1.98;1.33;;;23.40;52.20;;;;;;6345839;28;20032;-88
2023/05/29 01:27:17;;;;;;;1.33;1.10;;;24.30;52.60;;;;;;6344639;28;20100;-88
2023/05/29 01:30:22;;;;;;;1.70;1.23;;;24.00;52.60;;;;;;6345218;28;20070;-88
2023/05/29 01:33:26;;;;;;;1.20;1.10;;;23.70;52.40;;;;;;6345144;28;20044;-88
2023/05/29 01:36:28;;;;;;;1.75;1.08;;;23.20;52.60;;;;;;6344283;28;20043;-88
2023/05/29 01:39:33;;;;;;;1.25;1.00;;;23.90;52.80;;;;;;6344058;28;20050;-88
2023/05/29 01:42:35;;;;;;;1.70;1.40;;;23.30;52.50;;;;;;6344241;28;20111;-88
2023/05/29 01:45:37;;;;;;;1.20;1.10;;;24.00;52.80;;;;;;6345036;28;20107;-88
2023/05/29 01:48:40;;;;;;;1.02;0.90;;;23.20;52.50;;;;;;6344907;28;20048;-88
2023/05/29 01:51:42;;;;;;;1.27;0.93;;;23.50;52.40;;;;;;6345234;28;20032;-88
2023/05/29 01:54:47;;;;;;;1.30;1.00;;;23.20;52.30;;;;;;6344218;28;20134;-87
2023/05/29 01:57:50;;;;;;;1.60;1.20;;;23.30;52.70;;;;;;6343807;28;20028;-88
2023/05/29 02:00:52;;;;;;;1.10;0.90;;;23.10;52.30;;;;;;6343986;28;20082;-88
2023/05/29 02:03:54;;;;;;;1.02;0.90;;;23.30;52.50;;;;;;6343695;28;20040;-88
2023/05/29 02:06:57;;;;;;;1.10;1.00;;;23.20;52.70;;;;;;6344335;28;20279;-88
2023/05/29 02:09:59;;;;;;;1.08;0.93;;;23.20;52.20;;;;;;6343083;28;20059;-88
2023/05/29 02:13:02;;;;;;;1.33;1.08;;;23.00;52.70;;;;;;6343371;28;20046;-87
2023/05/29 02:16:04;;;;;;;1.15;1.05;;;23.30;52.70;;;;;;6344062;28;20044;-88
2023/05/29 02:19:05;;;;;;;1.40;1.00;;;22.50;52.10;;;;;;6345417;28;20044;-88
2023/05/29 02:22:08;;;;;;;1.38;1.08;;;23.90;53.10;;;;;;6344944;28;20036;-87
2023/05/29 02:25:10;;;;;;;1.63;1.00;;;24.20;53.30;;;;;;6344193;28;20060;-88
2023/05/29 02:28:12;;;;;;;1.38;1.00;;;22.80;52.50;;;;;;6341556;28;20166;-88
2023/05/29 02:31:17;;;;;;;1.55;1.13;;;23.20;52.80;;;;;;6343267;28;20028;-88
2023/05/29 02:34:22;;;;;;;1.20;1.00;;;23.40;51.90;;;;;;6329722;28;20028;-87
2023/05/29 02:37:25;;;;;;;1.00;0.82;;;22.50;52.50;;;;;;6349818;28;20075;-88
2023/05/29 02:40:27;;;;;;;1.40;1.05;;;22.90;52.60;;;;;;6330948;28;20044;-88
2023/05/29 02:43:29;;;;;;;1.48;0.80;;;23.20;52.80;;;;;;6348532;28;20031;-88
2023/05/29 02:46:31;;;;;;;1.33;1.23;;;23.10;52.70;;;;;;6327173;28;20085;-88
2023/05/29 02:49:33;;;;;;;1.50;0.90;;;22.80;52.60;;;;;;6319665;28;20052;-88
2023/05/29 02:52:36;;;;;;;1.38;0.90;;;23.80;53.20;;;;;;6339943;28;20533;-87
2023/05/29 02:55:38;;;;;;;1.85;1.20;;;23.90;52.90;;;;;;6307538;28;20108;-87
2023/05/29 02:58:40;;;;;;;0.90;0.80;;;23.10;52.80;;;;;;6343878;28;20041;-88
2023/05/29 03:01:42;;;;;;;1.30;1.20;;;23.10;52.60;;;;;;6343095;28;20491;-88
2023/05/29 03:04:45;;;;;;;1.40;1.25;;;22.90;52.70;;;;;;6341518;28;20048;-88
2023/05/29 03:07:49;;;;;;;2.00;1.38;;;22.70;52.00;;;;;;6326511;28;20048;-88
2023/05/29 03:10:52;;;;;;;1.23;0.98;;;23.00;52.60;;;;;;6345971;28;20066;-88
2023/05/29 03:13:54;;;;;;;1.40;1.20;;;23.10;52.40;;;;;;6346716;28;20088;-88
2023/05/29 03:16:59;;;;;;;1.30;1.10;;;23.20;52.40;;;;;;6346146;28;20051;-88
2023/05/29 03:20:01;;;;;;;1.70;1.20;;;22.60;52.40;;;;;;6344581;28;20047;-88
2023/05/29 03:23:02;;;;;;;1.52;0.98;;;23.50;52.70;;;;;;6342754;28;20070;-88
2023/05/29 03:26:05;;;;;;;1.15;0.85;;;23.60;52.80;;;;;;6345164;28;20168;-88
2023/05/29 03:29:10;;;;;;;1.60;1.17;;;23.00;52.40;;;;;;6345015;28;20506;-88
2023/05/29 03:32:12;;;;;;;1.50;0.90;;;23.00;52.30;;;;;;6341531;28;20040;-86
2023/05/29 03:35:14;;;;;;;1.48;1.20;;;23.30;52.50;;;;;;6323000;28;20051;-87
2023/05/29 03:39:02;;;;;;;1.25;1.10;;;23.00;53.10;;;;;;6466320;27;20297;-53
2023/05/29 03:42:04;;;;;;;1.63;1.20;;;23.20;52.10;;;;;;6439835;27;20045;-53
2023/05/29 03:45:06;;;;;;;1.90;1.10;;;23.20;52.30;;;;;;6439602;27;20746;-56
2023/05/29 03:48:11;;;;;;;1.42;1.00;;;23.20;52.20;;;;;;6439750;27;20113;-52
2023/05/29 03:51:13;;;;;;;1.75;1.35;;;23.20;52.30;;;;;;6439652;27;20089;-55
2023/05/29 03:54:16;;;;;;;1.80;1.38;;;23.20;52.20;;;;;;6439689;27;20517;-55
2023/05/29 03:57:19;;;;;;;1.58;1.10;;;23.10;52.10;;;;;;6424586;27;20381;-54
2023/05/29 04:00:22;;;;;;;1.33;1.23;;;21.80;51.40;;;;;;6412856;27;20113;-53
2023/05/29 04:03:25;;;;;;;1.15;0.95;;;23.20;52.20;;;;;;6412305;27;20434;-55
2023/05/29 04:06:29;;;;;;;1.10;1.00;;;23.20;52.00;;;;;;6413184;27;20843;-55
2023/05/29 04:09:32;;;;;;;1.08;0.90;;;23.20;51.00;;;;;;6411337;27;20412;-55
2023/05/29 04:12:35;;;;;;;1.75;1.33;;;23.10;51.80;;;;;;6394801;27;20492;-52
2023/05/29 04:15:37;;;;;;;1.10;1.00;;;23.20;51.90;;;;;;6412205;27;20636;-53
2023/05/29 04:18:38;;;;;;;1.40;1.20;;;23.10;51.80;;;;;;6410996;27;20065;-55
2023/05/29 04:21:39;;;;;;;;;;;23.10;51.80;;;;;;6412010;27;20444;-54
2023/05/29 04:24:42;;;;;;;1.23;1.02;;;22.90;51.90;;;;;;6411685;27;20428;-54
2023/05/29 04:27:48;;;;;;;1.30;1.00;;;23.20;51.80;;;;;;6412142;27;20069;-54
2023/05/29 04:30:55;;;;;;;1.73;1.05;;;23.30;51.60;;;;;;6412242;27;20047;-52
2023/05/29 04:33:57;;;;;;;1.25;0.90;;;23.10;51.60;;;;;;6411921;27;20027;-51
2023/05/29 04:37:02;;;;;;;1.40;0.90;;;23.00;51.40;;;;;;6411894;27;20069;-51
2023/05/29 04:40:09;;;;;;;1.10;0.90;;;23.20;51.40;;;;;;6412045;27;20437;-50
2023/05/29 04:43:11;;;;;;;1.13;1.00;;;23.00;51.10;;;;;;6411534;27;20039;-52
2023/05/29 04:46:29;;;;;;;1.50;1.05;;;22.70;51.00;;;;;;6411107;27;20038;-51
2023/05/29 04:49:31;;;;;;;1.63;1.20;;;22.70;50.90;;;;;;6398726;27;20066;-51
2023/05/29 04:52:33;;;;;;;1.02;0.93;;;23.10;51.10;;;;;;6393574;27;20066;-53
2023/05/29 04:55:35;;;;;;;;;;;23.10;51.70;;;;;;6394719;27;20541;-52
2023/05/29 04:58:37;;;;;;;1.23;0.90;;;23.20;51.30;;;;;;6392201;27;19926;-53
2023/05/29 05:01:39;;;;;;;1.00;0.88;;;23.00;50.90;;;;;;6393715;27;20757;-53
2023/05/29 05:04:42;;;;;;;1.58;0.90;;;23.10;50.90;;;;;;6394070;27;20098;-53
2023/05/29 05:07:44;;;;;;;1.77;1.10;;;23.10;50.70;;;;;;6393317;27;20416;-53
2023/05/29 05:10:47;;;;;;;1.15;0.90;;;22.60;50.40;;;;;;6392870;27;20026;-53
2023/05/29 05:13:49;;;;;;;1.25;0.93;;;23.00;50.40;;;;;;6392590;27;20046;-53
2023/05/29 05:16:55;;;;;;;1.10;0.98;;;22.80;50.30;;;;;;6391770;27;20149;-52
2023/05/29 05:19:57;;;;;;;1.27;0.90;;;23.00;49.40;;;;;;6393404;27;20047;-53
2023/05/29 05:23:00;;;;;;;0.90;0.70;;;22.70;50.30;;;;;;6393446;27;20034;-52
2023/05/29 05:26:02;;;;;;;1.00;0.82;;;23.10;50.30;;;;;;6393615;27;20047;-52
2023/05/29 05:29:05;;;;;;;0.68;0.60;;;22.60;50.00;;;;;;6391517;27;20034;-53
2023/05/29 05:32:14;;;;;;;1.13;0.80;;;23.00;50.10;;;;;;6392506;27;20031;-53
2023/05/29 05:35:17;;;;;;;1.20;0.80;;;22.90;50.10;;;;;;6374400;27;20061;-51
2023/05/29 05:38:20;;;;;;;1.30;0.88;;;23.10;50.00;;;;;;6392181;27;20034;-53
2023/05/29 05:41:25;;;;;;;1.30;0.90;;;23.00;50.20;;;;;;6395374;27;20785;-50
2023/05/29 05:44:27;;;;;;;1.00;0.73;;;23.10;50.10;;;;;;6391929;27;20031;-51
2023/05/29 05:47:38;;;;;;;1.23;0.95;;;23.00;50.10;;;;;;6393155;27;20042;-52
2023/05/29 05:50:41;;;;;;;0.88;0.57;;;22.80;49.80;;;;;;6392141;27;20042;-47
2023/05/29 05:53:42;;;;;;;;;;;22.90;50.00;;;;;;6391685;27;20039;-50
2023/05/29 05:56:44;;;;;;;0.90;0.73;;;23.10;50.30;;;;;;6391866;27;19983;-49
2023/05/29 05:59:49;;;;;;;1.73;1.17;;;22.70;49.80;;;;;;6390201;27;20035;-48
2023/05/29 06:02:51;;;;;;;;;;;23.00;50.00;;;;;;6390243;27;20590;-47
2023/05/29 06:06:07;;;;;;;0.90;0.70;;;23.20;50.40;;;;;;6389528;27;20549;-51
2023/05/29 06:09:11;;;;;;;1.10;0.70;;;23.00;49.80;;;;;;6388832;27;20114;-47
2023/05/29 06:12:13;;;;;;;1.65;0.82;;;22.90;49.90;;;;;;6388781;27;20058;-49
2023/05/29 06:15:24;;;;;;;0.80;0.70;;;23.00;49.80;;;;;;6388832;27;20242;-47
2023/05/29 06:18:25;;;;;;;0.80;0.70;;;23.00;49.90;;;;;;6388956;27;20117;-52
2023/05/29 06:21:27;;;;;;;0.80;0.60;;;23.00;49.90;;;;;;6389447;27;20528;-48
2023/05/29 06:24:30;;;;;;;1.02;0.80;;;23.00;49.90;;;;;;6388695;27;20027;-49
2023/05/29 06:27:32;;;;;;;1.08;0.70;;;23.10;49.80;;;;;;6388257;27;20046;-49
2023/05/29 06:30:34;;;;;;;1.13;0.70;;;22.50;49.40;;;;;;6387946;27;20038;-49
2023/05/29 06:33:41;;;;;;;0.80;0.70;;;22.90;49.70;;;;;;6388379;27;20496;-50
2023/05/29 06:36:43;;;;;;;1.00;0.90;;;22.50;49.40;;;;;;6387945;27;20023;-50
2023/05/29 06:39:46;;;;;;;0.82;0.80;;;22.90;49.60;;;;;;6389349;27;20050;-50
2023/05/29 06:42:48;;;;;;;0.75;0.60;;;23.00;49.60;;;;;;6388971;27;20117;-48
2023/05/29 06:45:50;;;;;;;1.08;0.80;;;22.70;49.30;;;;;;6390312;27;20392;-47
2023/05/29 06:48:52;;;;;;;0.90;0.68;;;23.00;49.60;;;;;;6389587;27;20042;-50
2023/05/29 06:51:55;;;;;;;0.80;0.70;;;23.00;49.50;;;;;;6389519;27;20031;-49
2023/05/29 06:55:01;;;;;;;0.85;0.85;;;22.80;49.30;;;;;;6389367;27;20592;-52
2023/05/29 06:58:03;;;;;;;1.20;0.82;;;23.00;49.50;;;;;;6389861;27;20428;-52
2023/05/29 07:01:05;;;;;;;1.15;0.88;;;22.90;49.10;;;;;;6389339;27;20030;-50
2023/05/29 07:04:11;;;;;;;0.98;0.80;;;23.00;49.20;;;;;;6388448;27;20035;-52
2023/05/29 07:07:13;;;;;;;1.50;0.80;;;23.10;49.30;;;;;;6387154;27;20069;-49
2023/05/29 07:10:16;;;;;;;1.00;0.70;;;23.10;49.10;;;;;;6387439;27;20046;-49
2023/05/29 07:13:18;;;;;;;0.93;0.60;;;23.20;49.20;;;;;;6388428;27;20035;-49
2023/05/29 07:16:20;;;;;;;0.88;0.63;;;23.00;49.00;;;;;;6388731;27;20039;-51
2023/05/29 07:19:34;;;;;;;1.17;0.82;;;23.00;49.00;;;;;;6388732;27;20460;-50
2023/05/29 07:22:38;;;;;;;0.88;0.68;;;23.10;49.00;;;;;;6389140;27;20038;-49
2023/05/29 07:25:40;;;;;;;0.60;0.60;;;23.20;49.10;;;;;;6389044;27;20444;-51
2023/05/29 07:28:42;;;;;;;0.90;0.70;;;23.00;48.80;;;;;;6388326;27;20031;-47
2023/05/29 07:31:44;;;;;;;1.05;0.70;;;23.10;48.90;;;;;;6388509;27;20109;-51
2023/05/29 07:34:45;;;;;;;0.93;0.80;;;23.10;48.70;;;;;;6387683;27;20438;-47
2023/05/29 07:37:52;;;;;;;1.02;0.80;;;23.00;48.80;;;;;;6386425;27;20053;-47
2023/05/29 07:40:53;;;;;;;1.10;0.90;;;23.20;48.80;;;;;;6337544;27;20074;-39
2023/05/29 07:44:05;;;;;;;1.13;0.70;;;23.30;48.70;;;;;;6427481;27;20075;-40
2023/05/29 07:47:07;;;;;;;0.90;0.80;;;23.10;48.50;;;;;;6426871;27;20035;-39
2023/05/29 07:50:14;;;;;;;1.05;0.80;;;23.30;48.70;;;;;;6428414;27;20064;-44
2023/05/29 07:53:16;;;;;;;0.95;0.70;;;23.30;48.50;;;;;;6428532;27;20086;-38
2023/05/29 07:56:17;;;;;;;0.90;0.70;;;23.30;48.70;;;;;;6427722;27;20082;-40
2023/05/29 07:59:20;;;;;;;0.88;0.77;;;23.40;48.60;;;;;;6428071;27;20042;-39
2023/05/29 08:02:22;;;;;;;0.60;0.55;;;23.40;48.60;;;;;;6428686;27;20039;-38
2023/05/29 08:05:43;;;;;;;0.87;0.73;;;23.20;48.50;;;;;;6428191;27;20027;-42
2023/05/29 08:08:47;;;;;;;0.70;0.70;;;23.40;48.60;;;;;;6428947;27;20277;-38
2023/05/29 08:11:49;;;;;;;0.90;0.80;;;23.30;48.40;;;;;;6428379;27;20023;-39
2023/05/29 08:14:53;;;;;;;0.93;0.82;;;23.50;48.60;;;;;;6427732;27;20042;-40
2023/05/29 08:17:55;;;;;;;0.85;0.70;;;23.40;48.50;;;;;;6426841;27;20015;-38
2023/05/29 08:20:56;;;;;;;1.02;0.93;;;23.00;48.30;;;;;;6424928;27;20113;-40
2023/05/29 08:23:59;;;;;;;0.82;0.68;;;23.40;48.50;;;;;;6426643;27;20091;-38
2023/05/29 08:27:00;;;;;;;0.70;0.70;;;23.50;48.50;;;;;;6427657;27;20053;-39
2023/05/29 08:30:03;;;;;;;;;;;23.50;48.50;;;;;;6427053;27;20038;-38
2023/05/29 08:33:06;;;;;;;0.80;0.60;;;23.50;48.50;;;;;;6427892;27;19915;-38
2023/05/29 08:36:08;;;;;;;0.75;0.75;;;22.90;48.10;;;;;;6429554;27;20099;-40
2023/05/29 08:39:10;;;;;;;0.80;0.75;;;23.20;48.40;;;;;;6429753;27;20042;-38
2023/05/29 08:42:18;;;;;;;1.00;0.85;;;23.50;48.50;;;;;;6429523;27;20050;-39
2023/05/29 08:45:22;;;;;;;1.02;0.93;;;23.40;48.60;;;;;;6393464;27;20239;-38
2023/05/29 08:48:25;;;;;;;1.48;1.05;;;23.30;48.50;;;;;;6430362;27;20050;-38
2023/05/29 08:51:32;;;;;;;0.90;0.80;;;23.20;48.50;;;;;;6395489;27;20050;-38
2023/05/29 08:54:34;;;;;;;1.33;0.98;;;23.60;48.70;;;;;;6431436;27;20045;-40
2023/05/29 08:57:38;;;;;;;1.45;0.95;;;23.40;48.70;;;;;;6431739;27;20031;-39
2023/05/29 09:00:41;;;;;;;1.42;0.80;;;23.60;48.70;;;;;;6413922;27;20038;-38
2023/05/29 09:03:43;;;;;;;1.10;0.90;;;23.50;48.90;;;;;;6431478;27;20059;-40
2023/05/29 09:06:46;;;;;;;1.00;0.90;;;23.40;48.90;;;;;;6431969;27;20040;-38
2023/05/29 09:09:48;;;;;;;1.00;0.82;;;23.50;49.00;;;;;;6431798;27;20048;-38
2023/05/29 09:12:50;;;;;;;1.73;1.10;;;23.40;48.90;;;;;;6413697;27;20068;-39
2023/05/29 09:15:58;;;;;;;0.75;0.73;;;23.40;49.10;;;;;;6431974;27;20035;-38
2023/05/29 09:19:06;;;;;;;1.58;0.80;;;23.40;49.10;;;;;;6413351;27;20055;-37
2023/05/29 09:22:10;;;;;;;0.98;0.70;;;23.60;49.30;;;;;;6431050;27;20042;-39
2023/05/29 09:25:12;;;;;;;1.00;0.75;;;23.50;49.30;;;;;;6413285;27;20023;-38
2023/05/29 09:28:15;;;;;;;0.85;0.80;;;23.60;49.40;;;;;;6430623;27;20023;-38
2023/05/29 09:31:17;;;;;;;1.42;1.10;;;23.60;49.40;;;;;;6431101;27;20030;-39
2023/05/29 09:34:26;;;;;;;1.25;0.80;;;23.70;49.60;;;;;;6430983;27;20031;-41
2023/05/29 09:37:28;;;;;;;1.10;0.90;;;23.40;49.30;;;;;;6431303;27;20038;-38
2023/05/29 09:40:32;;;;;;;0.90;0.80;;;23.50;49.50;;;;;;6431268;27;20049;-37
2023/05/29 09:43:34;;;;;;;0.90;0.70;;;23.70;49.50;;;;;;6395881;27;20034;-38
2023/05/29 09:46:37;;;;;;;1.08;0.90;;;23.70;49.60;;;;;;6430691;27;20042;-39
2023/05/29 09:49:41;;;;;;;1.05;0.90;;;23.70;49.60;;;;;;6430328;27;20050;-37
2023/05/29 09:52:43;;;;;;;1.08;0.90;;;23.70;49.50;;;;;;6430921;27;20031;-39
2023/05/29 09:55:46;;;;;;;0.95;0.75;;;24.00;49.70;;;;;;6430683;27;20035;-39
2023/05/29 09:58:49;;;;;;;1.02;0.90;;;23.80;49.50;;;;;;6432065;27;20018;-40
2023/05/29 10:02:01;;;;;;;1.10;0.90;;;23.60;49.30;;;;;;6431981;27;20035;-39
2023/05/29 10:05:03;;;;;;;1.40;0.98;;;23.90;49.60;;;;;;6414508;27;20038;-39
2023/05/29 10:08:07;;;;;;;1.00;0.90;;;23.80;49.40;;;;;;6432233;27;20067;-39
2023/05/29 10:11:15;;;;;;;1.00;0.90;;;23.80;49.40;;;;;;6432063;27;20030;-38
2023/05/29 10:14:19;;;;;;;1.10;0.90;;;23.70;49.40;;;;;;6431986;27;20060;-39
2023/05/29 10:17:25;;;;;;;1.13;1.02;;;23.90;49.50;;;;;;6431836;27;20046;-38
2023/05/29 10:20:28;;;;;;;1.38;1.13;;;24.10;49.60;;;;;;6431555;27;20025;-39
2023/05/29 10:23:31;;;;;;;1.23;1.13;;;23.80;49.40;;;;;;6414097;27;20083;-38
2023/05/29 10:26:35;;;;;;;1.10;1.00;;;24.10;49.50;;;;;;6431509;27;20045;-38
2023/05/29 10:29:43;;;;;;;1.52;1.10;;;24.10;49.50;;;;;;6432045;27;20038;-38
2023/05/29 10:33:08;;;;;;;1.20;1.10;;;24.10;49.50;;;;;;6414261;27;20029;-39
2023/05/29 10:36:14;;;;;;;1.20;1.10;;;24.00;49.40;;;;;;6431591;27;20049;-40
2023/05/29 10:39:16;;;;;;;1.20;1.08;;;24.20;49.40;;;;;;6431620;27;20046;-39
2023/05/29 10:42:40;;;;;;;0.98;0.80;;;24.20;49.30;;;;;;6431804;27;20043;-39
2023/05/29 10:45:51;;;;;;;1.35;1.25;;;24.20;49.20;;;;;;6431031;27;20039;-40
2023/05/29 10:48:54;;;;;;;1.25;1.00;;;24.10;49.10;;;;;;6429395;27;20030;-40
2023/05/29 10:51:59;;;;;;;0.90;0.90;;;24.10;49.00;;;;;;6431909;27;20027;-41
2023/05/29 10:55:04;;;;;;;1.00;0.93;;;24.20;49.00;;;;;;6431528;27;20034;-39
2023/05/29 10:58:05;;;;;;;1.75;1.30;;;24.10;48.80;;;;;;6431015;27;20038;-40
2023/05/29 11:01:08;;;;;;;1.13;0.90;;;24.30;48.90;;;;;;6431399;27;20042;-38
2023/05/29 11:04:26;;;;;;;1.23;1.02;;;24.10;48.70;;;;;;6413325;27;20050;-39
2023/05/29 11:07:50;;;;;;;1.42;1.10;;;24.30;48.70;;;;;;6431246;27;20041;-41
2023/05/29 11:10:59;;;;;;;1.08;0.98;;;24.40;48.70;;;;;;6431393;27;20022;-39
2023/05/29 11:14:04;;;;;;;1.25;0.90;;;24.30;48.60;;;;;;6431219;27;20026;-39
2023/05/29 11:17:05;;;;;;;1.30;1.20;;;24.40;48.60;;;;;;6431045;27;20043;-42
2023/05/29 11:20:13;;;;;;;1.75;1.20;;;24.40;48.60;;;;;;6431172;27;20023;-39
2023/05/29 11:23:17;;;;;;;1.02;0.93;;;24.30;48.40;;;;;;6410009;27;20043;-40
2023/05/29 11:26:20;;;;;;;1.75;1.15;;;24.50;48.40;;;;;;6430987;27;20042;-38
2023/05/29 11:29:22;;;;;;;1.02;0.93;;;24.50;48.30;;;;;;6430818;27;20033;-42
2023/05/29 11:32:27;;;;;;;1.30;1.00;;;24.40;48.20;;;;;;6428440;27;20069;-39
2023/05/29 11:35:30;;;;;;;1.17;0.98;;;24.40;48.20;;;;;;6413151;27;20049;-39
2023/05/29 11:38:32;;;;;;;1.35;1.02;;;24.50;48.40;;;;;;6430029;27;20034;-40
2023/05/29 11:41:33;;;;;;;0.93;0.90;;;24.40;48.50;;;;;;6430544;27;20014;-39
2023/05/29 11:44:35;;;;;;;1.30;1.20;;;24.50;48.60;;;;;;6430725;27;20019;-39
2023/05/29 11:47:51;;;;;;;1.10;0.98;;;24.50;49.30;;;;;;6428321;27;20019;-38
2023/05/29 11:50:54;;;;;;;1.58;1.20;;;24.40;48.70;;;;;;6413069;27;20027;-38
2023/05/29 11:53:58;;;;;;;1.13;1.00;;;24.30;48.70;;;;;;6430500;27;20033;-38
2023/05/29 11:57:00;;;;;;;1.30;0.85;;;24.40;48.80;;;;;;6429912;27;20049;-39
2023/05/29 12:00:09;;;;;;;1.27;0.93;;;24.40;48.90;;;;;;6433481;27;20043;-42
2023/05/29 12:03:11;;;;;;;1.30;0.98;;;24.20;48.90;;;;;;6435120;27;20041;-39
2023/05/29 12:06:13;;;;;;;0.82;0.80;;;24.40;49.10;;;;;;6435017;27;20023;-38
2023/05/29 12:09:25;;;;;;;1.48;1.10;;;24.30;49.20;;;;;;6434756;27;20029;-38
2023/05/29 12:12:29;;;;;;;1.13;1.00;;;24.40;49.30;;;;;;6434731;27;20042;-38
2023/05/29 12:15:30;;;;;;;0.95;0.85;;;24.30;49.30;;;;;;6434635;27;20063;-40
2023/05/29 12:18:33;;;;;;;0.75;0.70;;;24.40;49.30;;;;;;6434328;27;20027;-42
2023/05/29 12:21:37;;;;;;;1.25;1.00;;;24.50;49.40;;;;;;6434025;27;20039;-37
2023/05/29 12:24:39;;;;;;;1.15;0.90;;;24.30;49.20;;;;;;6434532;27;20044;-40
2023/05/29 12:27:46;;;;;;;1.10;1.00;;;24.40;49.30;;;;;;6416127;27;20042;-40
2023/05/29 12:30:49;;;;;;;1.25;0.90;;;24.20;49.10;;;;;;6416093;27;20026;-40
2023/05/29 12:33:51;;;;;;;0.90;0.88;;;24.30;49.10;;;;;;6416560;27;20038;-39
2023/05/29 12:36:53;;;;;;;0.98;0.85;;;24.30;49.00;;;;;;6434066;27;20023;-39
2023/05/29 12:40:10;;;;;;;1.33;1.00;;;24.30;48.90;;;;;;6433447;27;20049;-38
2023/05/29 12:43:11;;;;;;;1.45;0.88;;;24.20;48.80;;;;;;6418429;27;20039;-39
2023/05/29 12:46:13;;;;;;;1.30;1.20;;;24.40;48.90;;;;;;6433854;27;20039;-40
2023/05/29 12:49:16;;;;;;;1.63;1.02;;;24.40;48.90;;;;;;6433968;27;20043;-40
2023/05/29 12:52:20;;;;;;;0.82;0.70;;;24.40;48.90;;;;;;6416375;27;20043;-40
2023/05/29 12:55:22;;;;;;;1.13;0.90;;;24.50;49.00;;;;;;6433984;27;20096;-39
2023/05/29 12:58:24;;;;;;;0.90;0.82;;;24.30;48.90;;;;;;6433501;27;20042;-39
2023/05/29 13:01:25;;;;;;;1.38;0.95;;;24.40;48.90;;;;;;6431491;27;20018;-39
2023/05/29 13:04:27;;;;;;;0.93;0.80;;;24.30;48.90;;;;;;6416070;27;20022;-40
2023/05/29 13:07:30;;;;;;;1.10;0.90;;;24.40;48.90;;;;;;6432958;27;20060;-39
2023/05/29 13:10:32;;;;;;;1.27;1.10;;;24.20;48.90;;;;;;6432653;27;20034;-43
2023/05/29 13:13:33;;;;;;;1.65;1.00;;;24.30;49.60;;;;;;6432935;27;20038;-39
2023/05/29 13:16:35;;;;;;;1.20;1.10;;;24.30;49.00;;;;;;6432932;27;20038;-39
2023/05/29 13:19:37;;;;;;;1.27;1.13;;;24.50;49.00;;;;;;6433122;27;20026;-41
2023/05/29 13:22:40;;;;;;;;;;;24.30;48.90;;;;;;6433762;27;20034;-38
2023/05/29 13:25:41;;;;;;;1.00;0.85;;;24.20;48.90;;;;;;6432893;27;19919;-40
2023/05/29 13:28:42;;;;;;;1.92;1.02;;;24.50;49.00;;;;;;6432888;27;20027;-39
2023/05/29 13:31:44;;;;;;;1.23;1.08;;;24.20;48.70;;;;;;6380440;27;20035;-39
2023/05/29 13:34:46;;;;;;;1.10;1.00;;;24.40;48.80;;;;;;6432756;27;20023;-40
2023/05/29 13:37:48;;;;;;;1.45;1.10;;;24.40;48.80;;;;;;6432602;27;20046;-41
2023/05/29 13:40:50;;;;;;;1.67;1.13;;;24.30;48.70;;;;;;6414674;27;20062;-40
2023/05/29 13:43:51;;;;;;;1.42;1.10;;;24.30;48.70;;;;;;6432314;27;20037;-42
2023/05/29 13:46:53;;;;;;;1.25;1.02;;;24.30;48.70;;;;;;6429939;27;20042;-38
2023/05/29 13:49:57;;;;;;;1.42;1.00;;;24.30;48.70;;;;;;6432185;27;20018;-39
2023/05/29 13:53:00;;;;;;;1.30;0.90;;;24.50;48.90;;;;;;6432063;27;20074;-39
2023/05/29 13:56:01;;;;;;;1.30;1.10;;;24.40;48.80;;;;;;6431994;27;20080;-40
2023/05/29 13:59:05;;;;;;;1.40;1.00;;;24.40;48.90;;;;;;6431793;27;20022;-39
2023/05/29 14:02:08;;;;;;;1.33;1.00;;;24.30;48.80;;;;;;6431783;27;20031;-38
2023/05/29 14:05:12;;;;;;;1.38;1.10;;;24.40;48.80;;;;;;6431730;27;20034;-41
2023/05/29 14:08:19;;;;;;;1.20;0.90;;;24.30;48.60;;;;;;6431829;27;20043;-38
2023/05/29 14:11:20;;;;;;;1.15;1.00;;;24.30;48.60;;;;;;6431673;27;20039;-39
2023/05/29 14:14:22;;;;;;;1.38;1.25;;;24.40;48.70;;;;;;6431878;27;20030;-38
2023/05/29 14:17:25;;;;;;;1.55;0.98;;;24.10;48.60;;;;;;6396707;27;20029;-39
2023/05/29 14:20:27;;;;;;;1.17;0.90;;;24.20;48.60;;;;;;6430843;27;20043;-40
2023/05/29 14:23:29;;;;;;;1.42;1.05;;;24.30;48.60;;;;;;6430517;27;20057;-38
2023/05/29 14:26:30;;;;;;;1.20;1.00;;;24.30;48.50;;;;;;6431629;27;20027;-38
2023/05/29 14:29:32;;;;;;;1.58;1.20;;;24.30;48.40;;;;;;6431526;27;20057;-38
2023/05/29 14:32:33;;;;;;;1.40;1.30;;;24.30;48.40;;;;;;6429319;27;20039;-38
2023/05/29 14:35:35;;;;;;;1.30;1.20;;;24.40;48.30;;;;;;6430927;27;20163;-41
2023/05/29 14:38:37;;;;;;;1.05;0.93;;;24.40;48.30;;;;;;6431047;27;20042;-39
2023/05/29 14:41:44;;;;;;;1.23;0.85;;;24.30;48.30;;;;;;6430630;27;20019;-38
2023/05/29 14:44:46;;;;;;;1.08;0.90;;;24.20;48.20;;;;;;6362183;27;20051;-41
2023/05/29 14:47:49;;;;;;;2.25;1.10;;;24.30;48.50;;;;;;6430744;27;20043;-39
2023/05/29 14:50:52;;;;;;;0.88;0.80;;;24.10;48.40;;;;;;6430821;27;20082;-38
2023/05/29 14:53:56;;;;;;;1.25;0.90;;;24.30;48.60;;;;;;6430196;27;20018;-39
2023/05/29 14:56:57;;;;;;;1.00;0.90;;;24.40;48.70;;;;;;6428184;27;20039;-41
2023/05/29 14:59:59;;;;;;;1.20;1.00;;;24.30;48.70;;;;;;6430642;27;20043;-39
2023/05/29 15:03:02;;;;;;;1.25;1.00;;;24.40;48.80;;;;;;6430147;27;20038;-38
2023/05/29 15:06:03;;;;;;;1.38;1.00;;;24.50;48.90;;;;;;6430570;27;20035;-39
2023/05/29 15:09:06;;;;;;;1.10;0.98;;;24.40;48.80;;;;;;6430308;27;20022;-37
2023/05/29 15:12:08;;;;;;;1.30;1.20;;;24.40;48.80;;;;;;6430053;27;20022;-40
2023/05/29 15:15:10;;;;;;;1.10;0.73;;;24.40;48.60;;;;;;6429773;27;20026;-40
2023/05/29 15:18:14;;;;;;;0.80;0.80;;;24.40;48.50;;;;;;6430280;27;20034;-38
2023/05/29 15:21:16;;;;;;;0.93;0.88;;;24.30;48.40;;;;;;6430065;27;20034;-39
2023/05/29 15:24:18;;;;;;;1.30;1.00;;;24.30;48.50;;;;;;6429900;27;20042;-38
2023/05/29 15:27:20;;;;;;;1.63;1.30;;;24.30;48.50;;;;;;6430064;27;20063;-38
2023/05/29 15:30:23;;;;;;;1.30;1.20;;;24.30;48.50;;;;;;6429228;27;20086;-39
2023/05/29 15:33:25;;;;;;;1.10;1.00;;;24.30;48.50;;;;;;6428852;27;20052;-39
2023/05/29 15:36:27;;;;;;;1.20;1.00;;;24.40;48.60;;;;;;6421115;27;20036;-39
2023/05/29 15:39:31;;;;;;;1.30;1.10;;;24.30;48.60;;;;;;6399232;28;20052;-40
2023/05/29 15:42:32;;;;;;;1.65;1.33;;;24.30;48.60;;;;;;6403672;28;20023;-40
2023/05/29 15:45:34;;;;;;;1.52;0.98;;;24.30;48.60;;;;;;6403527;27;20045;-41
2023/05/29 15:48:36;;;;;;;1.10;0.93;;;24.50;48.70;;;;;;6386260;28;20023;-37
2023/05/29 15:51:40;;;;;;;1.20;1.10;;;24.20;48.50;;;;;;6403487;28;20015;-38
2023/05/29 15:54:42;;;;;;;1.40;1.05;;;24.30;48.60;;;;;;6403017;28;20027;-39
2023/05/29 15:57:47;;;;;;;1.08;0.98;;;24.40;48.70;;;;;;6350530;28;20094;-39